sensor_id;sensor_type;location;lat;lon;timestamp;P1;durP1;ratioP1;P2;durP2;ratioP2
31686;SDS011;18285;51.330;4.946;2023-04-25T00:01:22;4.75;;;2.50;;
31686;SDS011;18285;51.330;4.946;2023-04-25T00:25:33;4.00;;;2.38;;
31686;SDS011;18285;51.330;4.946;2023-04-25T00:49:43;4.28;;;2.03;;
31686;SDS011;18285;51.330;4.946;2023-04-25T01:13:54;3.75;;;2.08;;
31686;SDS011;18285;51.330;4.946;2023-04-25T01:38:05;5.10;;;2.13;;
31686;SDS011;18285;51.330;4.946;2023-04-25T02:02:15;3.67;;;1.88;;
31686;SDS011;18285;51.330;4.946;2023-04-25T02:26:26;3.50;;;2.00;;
31686;SDS011;18285;51.330;4.946;2023-04-25T02:50:37;4.45;;;1.80;;
31686;SDS011;18285;51.330;4.946;2023-04-25T03:14:47;3.00;;;1.52;;
31686;SDS011;18285;51.330;4.946;2023-04-25T03:38:58;4.07;;;1.60;;
31686;SDS011;18285;51.330;4.946;2023-04-25T04:03:09;2.85;;;1.63;;
31686;SDS011;18285;51.330;4.946;2023-04-25T04:27:21;3.53;;;1.67;;
31686;SDS011;18285;51.330;4.946;2023-04-25T04:51:32;2.27;;;1.47;;
31686;SDS011;18285;51.330;4.946;2023-04-25T05:15:44;4.10;;;1.85;;
31686;SDS011;18285;51.330;4.946;2023-04-25T05:39:54;12.43;;;3.70;;
31686;SDS011;18285;51.330;4.946;2023-04-25T06:04:05;10.15;;;3.10;;
31686;SDS011;18285;51.330;4.946;2023-04-25T06:28:16;9.18;;;2.50;;
31686;SDS011;18285;51.330;4.946;2023-04-25T06:52:26;8.43;;;2.45;;
31686;SDS011;18285;51.330;4.946;2023-04-25T07:16:37;4.25;;;1.80;;
31686;SDS011;18285;51.330;4.946;2023-04-25T07:40:48;3.83;;;1.60;;
31686;SDS011;18285;51.330;4.946;2023-04-25T08:04:59;3.77;;;1.70;;
31686;SDS011;18285;51.330;4.946;2023-04-25T08:54:37;2.92;;;1.35;;
31686;SDS011;18285;51.330;4.946;2023-04-25T09:18:54;2.53;;;1.08;;
31686;SDS011;18285;51.330;4.946;2023-04-25T09:43:08;3.00;;;1.20;;
31686;SDS011;18285;51.330;4.946;2023-04-25T10:07:30;2.92;;;1.20;;
31686;SDS011;18285;51.330;4.946;2023-04-25T10:55:55;2.85;;;1.10;;
31686;SDS011;18285;51.330;4.946;2023-04-25T11:20:07;3.33;;;1.02;;
31686;SDS011;18285;51.330;4.946;2023-04-25T11:44:21;3.03;;;0.90;;
31686;SDS011;18285;51.330;4.946;2023-04-25T12:08:32;1.92;;;0.70;;
31686;SDS011;18285;51.330;4.946;2023-04-25T12:32:43;4.18;;;0.88;;
31686;SDS011;18285;51.330;4.946;2023-04-25T12:56:53;2.17;;;0.70;;
31686;SDS011;18285;51.330;4.946;2023-04-25T13:21:04;2.13;;;0.80;;
31686;SDS011;18285;51.330;4.946;2023-04-25T13:45:15;3.60;;;1.05;;
31686;SDS011;18285;51.330;4.946;2023-04-25T14:09:26;2.30;;;1.00;;
31686;SDS011;18285;51.330;4.946;2023-04-25T14:33:37;3.17;;;1.10;;
31686;SDS011;18285;51.330;4.946;2023-04-25T14:57:52;4.45;;;1.48;;
31686;SDS011;18285;51.330;4.946;2023-04-25T15:22:04;5.38;;;1.90;;
31686;SDS011;18285;51.330;4.946;2023-04-25T15:46:16;5.28;;;1.65;;
31686;SDS011;18285;51.330;4.946;2023-04-25T16:10:27;9.90;;;1.95;;
31686;SDS011;18285;51.330;4.946;2023-04-25T16:34:38;6.45;;;1.48;;
31686;SDS011;18285;51.330;4.946;2023-04-25T16:58:49;6.68;;;1.55;;
31686;SDS011;18285;51.330;4.946;2023-04-25T17:23:00;2.53;;;1.02;;
31686;SDS011;18285;51.330;4.946;2023-04-25T17:47:11;2.78;;;1.05;;
31686;SDS011;18285;51.330;4.946;2023-04-25T18:11:22;2.50;;;1.17;;
31686;SDS011;18285;51.330;4.946;2023-04-25T18:35:33;4.60;;;1.40;;
31686;SDS011;18285;51.330;4.946;2023-04-25T18:59:43;4.13;;;1.77;;
31686;SDS011;18285;51.330;4.946;2023-04-25T19:23:55;9.77;;;2.55;;
31686;SDS011;18285;51.330;4.946;2023-04-25T19:48:06;7.47;;;3.90;;
31686;SDS011;18285;51.330;4.946;2023-04-25T20:12:19;6.63;;;2.53;;
31686;SDS011;18285;51.330;4.946;2023-04-25T20:36:39;6.25;;;2.33;;
31686;SDS011;18285;51.330;4.946;2023-04-25T21:00:49;4.30;;;2.08;;
31686;SDS011;18285;51.330;4.946;2023-04-25T21:25:00;4.50;;;1.75;;
31686;SDS011;18285;51.330;4.946;2023-04-25T21:49:15;3.85;;;1.35;;
31686;SDS011;18285;51.330;4.946;2023-04-25T22:13:25;2.20;;;1.52;;
31686;SDS011;18285;51.330;4.946;2023-04-25T22:37:37;2.90;;;1.70;;
31686;SDS011;18285;51.330;4.946;2023-04-25T23:01:49;2.97;;;1.38;;
31686;SDS011;18285;51.330;4.946;2023-04-25T23:26:05;3.15;;;1.40;;
31686;SDS011;18285;51.330;4.946;2023-04-25T23:50:17;2.50;;;1.35;;
